createdAt,value
2019-01-14T00:01:17.090Z,2.90
2019-01-14T00:05:21.463Z,3.07
2019-01-14T00:09:31.220Z,2.97
2019-01-14T00:13:31.549Z,2.93
2019-01-14T00:17:35.805Z,4.23
2019-01-14T00:21:39.923Z,3.07
2019-01-14T00:25:44.118Z,3.40
2019-01-14T00:29:48.322Z,3.30
2019-01-14T00:33:53.485Z,3.73
2019-01-14T00:37:57.602Z,3.90
2019-01-14T00:42:01.793Z,4.40
2019-01-14T00:46:05.906Z,4.00
2019-01-14T00:50:11.240Z,4.23
2019-01-14T00:54:15.435Z,3.97
2019-01-14T00:58:19.621Z,3.93
2019-01-14T01:02:23.905Z,4.10
2019-01-14T01:06:28.166Z,4.70
2019-01-14T01:10:32.377Z,4.73
2019-01-14T01:14:36.545Z,3.87
2019-01-14T01:18:40.734Z,4.00
2019-01-14T01:22:45.007Z,4.63
2019-01-14T01:26:49.190Z,4.50
2019-01-14T01:30:53.365Z,5.10
2019-01-14T01:34:57.447Z,4.67
2019-01-14T01:39:01.633Z,5.07
2019-01-14T01:43:05.748Z,4.47
2019-01-14T01:47:09.943Z,4.10
2019-01-14T01:51:14.126Z,5.67
2019-01-14T01:55:18.226Z,4.93
2019-01-14T01:59:22.425Z,3.90
2019-01-14T02:03:26.673Z,4.37
2019-01-14T02:07:30.845Z,4.77
2019-01-14T02:11:34.962Z,5.00
2019-01-14T02:15:39.182Z,4.73
2019-01-14T02:19:43.382Z,4.13
2019-01-14T02:23:47.606Z,4.40
2019-01-14T02:27:51.785Z,5.27
2019-01-14T02:31:56.115Z,5.47
2019-01-14T02:36:00.464Z,4.27
2019-01-14T02:40:05.979Z,4.90
2019-01-14T02:44:10.237Z,4.60
2019-01-14T02:48:14.421Z,4.77
2019-01-14T02:52:18.538Z,3.70
2019-01-14T02:56:22.711Z,4.77
2019-01-14T03:00:28.238Z,5.77
2019-01-14T03:04:35.833Z,5.30
2019-01-14T03:08:40.342Z,4.63
2019-01-14T03:12:44.510Z,5.27
2019-01-14T03:16:48.698Z,4.83
2019-01-14T03:20:52.969Z,5.63
2019-01-14T03:24:58.126Z,4.30
2019-01-14T03:29:02.357Z,4.97
2019-01-14T03:33:06.535Z,3.97
2019-01-14T03:37:10.726Z,4.73
2019-01-14T03:41:14.909Z,4.97
2019-01-14T03:45:19.099Z,5.13
2019-01-14T03:49:23.286Z,6.43
2019-01-14T03:53:27.506Z,5.23
2019-01-14T03:57:31.770Z,5.13
2019-01-14T04:01:35.979Z,4.70
2019-01-14T04:05:40.179Z,5.10
2019-01-14T04:09:44.298Z,4.93
2019-01-14T04:13:48.428Z,5.37
2019-01-14T04:17:52.597Z,5.77
2019-01-14T04:21:56.807Z,3.97
2019-01-14T04:26:00.999Z,5.40
2019-01-14T04:30:08.071Z,5.67
2019-01-14T04:34:12.409Z,5.37
2019-01-14T04:38:16.599Z,5.20
2019-01-14T04:42:20.774Z,5.13
2019-01-14T04:46:25.023Z,5.30
2019-01-14T04:50:29.218Z,5.27
2019-01-14T04:54:33.454Z,4.83
2019-01-14T04:58:37.642Z,4.47
2019-01-14T05:02:41.854Z,4.90
2019-01-14T05:06:46.045Z,5.23
2019-01-14T05:10:50.221Z,4.80
2019-01-14T05:14:54.343Z,4.90
2019-01-14T05:18:58.530Z,5.03
2019-01-14T05:23:02.738Z,4.80
2019-01-14T05:27:06.928Z,4.13
2019-01-14T05:31:11.191Z,4.00
2019-01-14T05:35:15.614Z,4.77
2019-01-14T05:39:19.802Z,4.17
2019-01-14T05:43:23.979Z,4.80
2019-01-14T05:47:28.172Z,5.80
2019-01-14T05:51:32.389Z,4.07
2019-01-14T05:55:36.622Z,4.33
2019-01-14T05:59:40.846Z,5.07
2019-01-14T06:03:45.029Z,3.77
2019-01-14T06:07:49.274Z,4.50
2019-01-14T06:11:53.516Z,3.07
2019-01-14T06:15:57.657Z,4.33
2019-01-14T06:20:02.834Z,3.27
2019-01-14T06:24:06.938Z,3.67
2019-01-14T06:28:11.129Z,3.93
2019-01-14T06:32:15.321Z,3.40
2019-01-14T06:36:19.577Z,3.57
2019-01-14T06:40:23.543Z,4.13
2019-01-14T06:44:27.787Z,3.23
2019-01-14T06:48:31.975Z,3.90
2019-01-14T06:52:36.194Z,3.67
2019-01-14T06:56:40.480Z,3.10
2019-01-14T07:00:44.722Z,3.90
2019-01-14T07:04:48.999Z,3.93
2019-01-14T07:08:59.548Z,4.00
2019-01-14T07:13:03.750Z,3.60
2019-01-14T07:17:07.927Z,3.27
2019-01-14T07:21:12.075Z,4.00
2019-01-14T07:25:16.326Z,3.37
2019-01-14T07:29:20.516Z,4.00
2019-01-14T07:33:24.743Z,4.07
2019-01-14T07:37:28.951Z,3.87
2019-01-14T07:41:33.195Z,3.17
2019-01-14T07:45:37.604Z,3.27
2019-01-14T07:49:41.841Z,3.10
2019-01-14T07:53:46.038Z,3.30
2019-01-14T07:57:50.249Z,2.40
2019-01-14T08:01:54.450Z,2.23
2019-01-14T08:05:58.791Z,1.80
2019-01-14T08:10:03.061Z,1.53
2019-01-14T08:14:07.273Z,2.83
2019-01-14T08:18:11.542Z,1.60
2019-01-14T08:22:15.757Z,1.70
2019-01-14T08:26:19.886Z,2.50
2019-01-14T08:30:24.338Z,2.10
2019-01-14T08:34:28.461Z,2.40
2019-01-14T08:38:32.703Z,2.40
2019-01-14T08:42:37.400Z,2.70
2019-01-14T08:46:41.735Z,1.83
2019-01-14T08:50:45.960Z,1.53
2019-01-14T08:54:50.241Z,1.70
2019-01-14T08:58:54.482Z,1.63
2019-01-14T09:02:58.803Z,2.00
2019-01-14T09:07:03.130Z,2.00
2019-01-14T09:11:07.327Z,1.90
2019-01-14T09:15:12.904Z,2.47
2019-01-14T09:19:17.246Z,2.57
2019-01-14T09:23:21.446Z,2.70
2019-01-14T09:27:25.737Z,2.20
2019-01-14T09:31:31.582Z,2.30
2019-01-14T09:35:35.814Z,3.00
2019-01-14T09:39:40.045Z,2.23
2019-01-14T09:43:44.243Z,3.17
2019-01-14T09:47:48.550Z,2.23
2019-01-14T09:51:53.592Z,2.50
2019-01-14T09:55:57.775Z,2.00
2019-01-14T10:00:01.992Z,2.17
2019-01-14T10:04:06.273Z,2.13
2019-01-14T10:08:10.502Z,2.40
2019-01-14T10:12:14.747Z,2.47
2019-01-14T10:16:18.958Z,2.10
2019-01-14T10:20:23.222Z,2.00
2019-01-14T10:24:27.445Z,2.37
2019-01-14T10:28:31.559Z,3.10
2019-01-14T10:32:35.916Z,2.60
2019-01-14T10:36:40.297Z,2.03
2019-01-14T10:40:44.545Z,3.33
2019-01-14T10:44:48.758Z,2.70
2019-01-14T10:48:52.889Z,2.10
2019-01-14T10:52:57.157Z,2.17
2019-01-14T10:57:01.502Z,2.40
2019-01-14T11:01:05.758Z,3.40
2019-01-14T11:05:11.507Z,2.33
2019-01-14T11:09:15.695Z,2.13
2019-01-14T11:13:19.910Z,1.77
2019-01-14T11:17:24.142Z,1.37
2019-01-14T11:21:28.358Z,1.67
2019-01-14T11:25:32.553Z,1.67
2019-01-14T11:29:52.004Z,2.30
2019-01-14T11:33:56.112Z,3.33
2019-01-14T11:38:00.357Z,2.80
2019-01-14T11:42:04.629Z,2.20
2019-01-14T11:46:08.831Z,2.50
2019-01-14T11:50:14.506Z,2.37
2019-01-14T11:54:18.838Z,2.47
2019-01-14T11:58:23.199Z,2.30
2019-01-14T12:02:27.435Z,1.60
2019-01-14T12:06:31.624Z,1.67
2019-01-14T12:10:35.834Z,1.80
2019-01-14T12:14:40.023Z,2.00
2019-01-14T12:18:44.281Z,2.13
2019-01-14T12:22:48.610Z,2.77
2019-01-14T12:26:54.196Z,2.33
2019-01-14T12:30:58.558Z,2.30
2019-01-14T12:35:02.758Z,2.27
2019-01-14T12:39:08.843Z,2.20
2019-01-14T12:43:12.980Z,2.10
2019-01-14T12:47:17.288Z,2.20
2019-01-14T12:51:21.478Z,2.17
2019-01-14T12:55:25.679Z,3.00
2019-01-14T12:59:29.952Z,1.77
2019-01-14T13:03:34.274Z,2.17
2019-01-14T13:07:38.544Z,2.10
2019-01-14T13:11:42.858Z,1.97
2019-01-14T13:15:47.071Z,1.80
2019-01-14T13:19:51.267Z,2.27
2019-01-14T13:23:55.582Z,2.07
2019-01-14T13:27:59.722Z,2.23
2019-01-14T13:32:04.030Z,2.13
2019-01-14T13:36:09.853Z,2.30
2019-01-14T13:40:14.443Z,2.10
2019-01-14T13:44:18.648Z,2.20
2019-01-14T13:48:22.855Z,1.97
2019-01-14T13:52:27.096Z,2.10
2019-01-14T13:56:31.366Z,1.83
2019-01-14T14:00:35.730Z,2.57
2019-01-14T14:04:39.934Z,1.97
2019-01-14T14:08:44.127Z,1.87
2019-01-14T14:12:48.328Z,2.33
2019-01-14T14:16:52.546Z,2.27
2019-01-14T14:20:56.754Z,2.13
2019-01-14T14:25:01.046Z,2.07
2019-01-14T14:29:05.383Z,2.50
2019-01-14T14:33:09.709Z,3.10
2019-01-14T14:37:13.926Z,2.47
2019-01-14T14:41:18.117Z,2.10
2019-01-14T14:45:22.329Z,2.20
2019-01-14T14:49:26.542Z,2.37
2019-01-14T14:53:30.824Z,1.67
2019-01-14T14:57:35.091Z,2.13
2019-01-14T15:01:39.342Z,1.77
2019-01-14T15:05:43.558Z,2.02
2019-01-14T15:09:47.737Z,1.63
2019-01-14T15:13:52.007Z,1.50
2019-01-14T15:17:56.201Z,1.90
2019-01-14T15:22:00.362Z,1.67
2019-01-14T15:26:04.674Z,2.50
2019-01-14T15:30:16.337Z,2.37
2019-01-14T15:34:20.521Z,1.97
2019-01-14T15:38:24.714Z,2.10
2019-01-14T15:42:28.889Z,1.87
2019-01-14T15:46:33.194Z,2.10
2019-01-14T15:50:37.389Z,1.70
2019-01-14T15:54:41.501Z,2.20
2019-01-14T15:58:45.623Z,1.73
2019-01-14T16:02:49.837Z,2.00
2019-01-14T16:06:54.010Z,1.83
2019-01-14T16:10:58.163Z,2.23
2019-01-14T16:15:02.544Z,1.80
2019-01-14T16:19:06.823Z,1.80
2019-01-14T16:23:10.981Z,2.27
2019-01-14T16:27:15.225Z,2.37
2019-01-14T16:31:19.402Z,2.57
2019-01-14T16:35:23.774Z,2.10
2019-01-14T16:39:28.013Z,2.50
2019-01-14T16:43:32.178Z,2.20
2019-01-14T16:47:36.370Z,2.30
2019-01-14T16:51:40.578Z,2.60
2019-01-14T16:55:47.090Z,2.67
2019-01-14T16:59:51.351Z,2.70
2019-01-14T17:03:55.523Z,2.50
2019-01-14T17:07:59.714Z,3.17
2019-01-14T17:12:03.915Z,3.03
2019-01-14T17:16:08.122Z,2.33
2019-01-14T17:20:17.671Z,4.27
2019-01-14T17:24:21.851Z,2.37
2019-01-14T17:28:26.054Z,6.10
2019-01-14T17:32:30.245Z,2.13
2019-01-14T17:36:34.529Z,2.43
2019-01-14T17:40:38.718Z,2.30
2019-01-14T17:44:43.632Z,3.13
2019-01-14T17:48:48.026Z,2.70
2019-01-14T17:52:52.205Z,2.93
2019-01-14T17:56:56.477Z,4.17
2019-01-14T18:01:00.769Z,5.60
2019-01-14T18:05:05.670Z,3.87
2019-01-14T18:09:09.863Z,2.90
2019-01-14T18:13:14.126Z,6.37
2019-01-14T18:17:18.253Z,3.33
2019-01-14T18:21:22.374Z,3.50
2019-01-14T18:25:26.552Z,3.17
2019-01-14T18:29:30.770Z,3.00
2019-01-14T18:33:35.005Z,3.73
2019-01-14T18:37:39.365Z,3.27
2019-01-14T18:41:43.510Z,2.60
2019-01-14T18:45:47.694Z,3.97
2019-01-14T18:49:51.966Z,2.90
2019-01-14T18:53:56.340Z,2.73
2019-01-14T18:58:00.525Z,2.97
2019-01-14T19:02:04.844Z,3.20
2019-01-14T19:06:09.167Z,4.27
2019-01-14T19:10:13.446Z,4.03
2019-01-14T19:14:17.654Z,3.53
2019-01-14T19:18:21.908Z,3.83
2019-01-14T19:22:26.118Z,3.33
2019-01-14T19:26:32.952Z,3.00
2019-01-14T19:30:37.282Z,3.57
2019-01-14T19:34:41.489Z,3.53
2019-01-14T19:38:45.774Z,3.77
2019-01-14T19:42:50.002Z,5.53
2019-01-14T19:46:54.170Z,3.67
2019-01-14T19:50:58.386Z,3.20
2019-01-14T19:55:02.664Z,3.13
2019-01-14T19:59:06.894Z,3.23
2019-01-14T20:03:11.141Z,3.20
2019-01-14T20:07:15.373Z,3.30
2019-01-14T20:11:19.572Z,3.33
2019-01-14T20:15:23.754Z,3.57
2019-01-14T20:19:27.953Z,3.53
2019-01-14T20:23:32.151Z,3.50
2019-01-14T20:27:36.314Z,2.57
2019-01-14T20:31:40.510Z,2.97
2019-01-14T20:35:44.705Z,3.97
2019-01-14T20:39:48.835Z,4.40
2019-01-14T20:43:53.034Z,4.03
2019-01-14T20:47:57.227Z,3.63
2019-01-14T20:52:01.421Z,2.93
2019-01-14T20:56:05.690Z,3.50
2019-01-14T21:00:14.354Z,3.47
2019-01-14T21:04:18.694Z,3.67
2019-01-14T21:08:22.875Z,4.27
2019-01-14T21:12:27.182Z,3.43
2019-01-14T21:16:31.586Z,3.93
2019-01-14T21:20:35.844Z,2.70
2019-01-14T21:24:40.026Z,4.27
2019-01-14T21:28:44.193Z,4.27
2019-01-14T21:32:48.343Z,3.63
2019-01-14T21:36:54.847Z,3.10
2019-01-14T21:40:59.102Z,3.10
2019-01-14T21:45:04.058Z,3.07
2019-01-14T21:49:08.161Z,3.43
2019-01-14T21:53:12.411Z,4.23
2019-01-14T21:57:16.595Z,3.70
2019-01-14T22:01:20.819Z,3.50
2019-01-14T22:05:24.933Z,3.37
2019-01-14T22:09:29.110Z,4.03
2019-01-14T22:13:33.303Z,3.87
2019-01-14T22:17:37.611Z,3.27
2019-01-14T22:21:41.773Z,3.43
2019-01-14T22:25:45.978Z,3.13
2019-01-14T22:29:50.604Z,3.77
2019-01-14T22:33:55.126Z,3.53
2019-01-14T22:37:59.322Z,3.90
2019-01-14T22:42:03.587Z,3.37
2019-01-14T22:46:07.779Z,4.37
2019-01-14T22:50:13.784Z,3.63
2019-01-14T22:54:17.951Z,2.90
2019-01-14T22:58:22.342Z,3.63
2019-01-14T23:02:26.754Z,3.57
2019-01-14T23:06:31.008Z,3.60
2019-01-14T23:10:35.204Z,3.10
2019-01-14T23:14:39.526Z,3.63
2019-01-14T23:18:43.710Z,3.80
2019-01-14T23:22:47.826Z,4.33
2019-01-14T23:26:52.015Z,3.63
2019-01-14T23:30:56.208Z,3.33
2019-01-14T23:35:00.358Z,3.97
2019-01-14T23:39:07.367Z,3.47
2019-01-14T23:43:11.549Z,3.43
2019-01-14T23:47:15.736Z,3.33
2019-01-14T23:51:19.918Z,3.30
2019-01-14T23:55:24.226Z,3.40
2019-01-14T23:59:28.398Z,3.20
